createdAt,value
2023-05-17T00:00:47.083Z,43.50
2023-05-17T00:03:16.531Z,43.50
2023-05-17T00:05:45.421Z,43.50
2023-05-17T00:08:14.727Z,43.50
2023-05-17T00:10:44.037Z,43.50
2023-05-17T00:13:13.341Z,43.50
2023-05-17T00:15:42.197Z,43.50
2023-05-17T00:18:11.198Z,43.60
2023-05-17T00:20:40.662Z,43.60
2023-05-17T00:23:09.606Z,43.50
2023-05-17T00:25:38.340Z,43.60
2023-05-17T00:28:07.251Z,43.50
2023-05-17T00:30:36.092Z,43.50
2023-05-17T00:33:04.991Z,43.70
2023-05-17T00:35:33.994Z,43.60
2023-05-17T00:38:02.201Z,43.60
2023-05-17T00:40:31.207Z,43.60
2023-05-17T00:42:59.970Z,43.70
2023-05-17T00:45:29.497Z,43.70
2023-05-17T00:47:59.168Z,43.70
2023-05-17T00:50:27.395Z,43.70
2023-05-17T00:52:56.005Z,43.80
2023-05-17T00:55:24.535Z,43.70
2023-05-17T00:57:53.500Z,43.70
2023-05-17T01:00:22.948Z,43.80
2023-05-17T01:02:51.789Z,43.80
2023-05-17T01:05:20.223Z,43.80
2023-05-17T01:07:48.986Z,43.90
2023-05-17T01:10:17.816Z,43.80
2023-05-17T01:12:47.094Z,43.80
2023-05-17T01:15:15.500Z,43.90
2023-05-17T01:17:44.910Z,43.80
2023-05-17T01:20:14.335Z,43.80
2023-05-17T01:22:43.675Z,43.90
2023-05-17T01:25:12.034Z,43.90
2023-05-17T01:27:40.976Z,43.90
2023-05-17T01:30:10.228Z,43.90
2023-05-17T01:32:39.522Z,43.90
2023-05-17T01:35:09.212Z,43.90
2023-05-17T01:37:38.054Z,43.90
2023-05-17T01:40:06.855Z,43.90
2023-05-17T01:42:35.433Z,43.90
2023-05-17T01:45:03.588Z,43.90
2023-05-17T01:47:32.692Z,44.00
2023-05-17T01:50:01.693Z,43.90
2023-05-17T01:52:30.596Z,43.90
2023-05-17T01:54:59.841Z,44.00
2023-05-17T01:57:28.252Z,44.00
2023-05-17T01:59:56.747Z,44.00
2023-05-17T02:02:26.172Z,44.00
2023-05-17T02:04:55.711Z,44.00
2023-05-17T02:07:23.676Z,44.00
2023-05-17T02:09:52.569Z,44.00
2023-05-17T02:12:21.626Z,44.00
2023-05-17T02:14:50.828Z,44.10
2023-05-17T02:17:20.415Z,44.00
2023-05-17T02:19:50.162Z,44.00
2023-05-17T02:22:19.223Z,44.00
2023-05-17T02:24:48.176Z,44.00
2023-05-17T02:27:17.275Z,44.00
2023-05-17T02:29:46.782Z,44.10
2023-05-17T02:32:16.057Z,44.10
2023-05-17T02:34:47.188Z,44.10
2023-05-17T02:37:15.585Z,44.10
2023-05-17T02:39:45.753Z,44.10
2023-05-17T02:42:15.116Z,44.00
2023-05-17T02:44:44.448Z,44.00
2023-05-17T02:47:14.214Z,44.10
2023-05-17T02:49:43.404Z,44.00
2023-05-17T02:52:12.560Z,44.10
2023-05-17T02:54:41.243Z,44.10
2023-05-17T02:57:09.747Z,44.10
2023-05-17T02:59:38.239Z,44.10
2023-05-17T03:02:07.763Z,44.10
2023-05-17T03:04:36.970Z,44.10
2023-05-17T03:07:07.106Z,44.20
2023-05-17T03:09:36.513Z,44.10
2023-05-17T03:12:05.513Z,44.20
2023-05-17T03:14:36.006Z,44.10
2023-05-17T03:17:05.144Z,44.10
2023-05-17T03:19:35.815Z,44.10
2023-05-17T03:22:04.412Z,44.10
2023-05-17T03:24:34.217Z,44.20
2023-05-17T03:27:02.801Z,44.20
2023-05-17T03:29:32.587Z,44.10
2023-05-17T03:32:01.645Z,44.20
2023-05-17T03:34:30.395Z,44.20
2023-05-17T03:36:58.663Z,44.20
2023-05-17T03:39:27.867Z,44.20
2023-05-17T03:41:57.279Z,44.20
2023-05-17T03:44:26.717Z,44.20
2023-05-17T03:46:55.567Z,44.20
2023-05-17T03:49:25.580Z,44.20
2023-05-17T03:51:55.087Z,44.10
2023-05-17T03:54:23.996Z,44.20
2023-05-17T03:56:52.457Z,44.10
2023-05-17T03:59:21.281Z,44.10
2023-05-17T04:01:49.687Z,44.10
2023-05-17T04:04:18.181Z,44.20
2023-05-17T04:06:47.160Z,44.20
2023-05-17T04:09:17.267Z,44.10
2023-05-17T04:11:45.840Z,44.20
2023-05-17T04:14:14.504Z,44.10
2023-05-17T04:16:42.951Z,44.10
2023-05-17T04:19:12.077Z,44.10
2023-05-17T04:21:41.287Z,44.10
2023-05-17T04:24:09.840Z,44.10
2023-05-17T04:26:38.872Z,44.10
2023-05-17T04:29:08.173Z,44.20
2023-05-17T04:31:37.857Z,44.00
2023-05-17T04:34:06.875Z,44.00
2023-05-17T04:36:35.906Z,44.10
2023-05-17T04:39:05.037Z,44.00
2023-05-17T04:41:34.222Z,44.10
2023-05-17T04:44:06.051Z,44.00
2023-05-17T04:46:37.438Z,44.00
2023-05-17T04:49:06.314Z,44.00
2023-05-17T04:51:34.297Z,43.90
2023-05-17T04:54:03.799Z,43.90
2023-05-17T04:56:31.989Z,44.00
2023-05-17T04:58:59.913Z,43.90
2023-05-17T05:01:29.039Z,43.80
2023-05-17T05:03:59.354Z,43.90
2023-05-17T05:06:29.897Z,43.90
2023-05-17T05:08:59.231Z,43.90
2023-05-17T05:11:27.798Z,43.90
2023-05-17T05:13:56.410Z,43.90
2023-05-17T05:16:24.965Z,43.80
2023-05-17T05:18:53.823Z,43.70
2023-05-17T05:21:23.637Z,43.60
2023-05-17T05:23:52.877Z,43.60
2023-05-17T05:26:21.447Z,43.60
2023-05-17T05:28:50.768Z,43.60
2023-05-17T05:31:20.256Z,43.60
2023-05-17T05:33:56.926Z,43.60
2023-05-17T05:36:26.721Z,43.60
2023-05-17T05:38:55.969Z,43.60
2023-05-17T05:41:24.230Z,43.60
2023-05-17T05:43:52.904Z,43.50
2023-05-17T05:46:21.574Z,43.50
2023-05-17T05:48:50.455Z,43.60
2023-05-17T05:51:22.043Z,43.50
2023-05-17T05:53:52.855Z,43.50
2023-05-17T05:56:21.687Z,43.40
2023-05-17T05:58:50.814Z,43.30
2023-05-17T06:01:19.652Z,43.20
2023-05-17T06:03:49.028Z,43.10
2023-05-17T06:06:18.634Z,43.10
2023-05-17T06:08:48.300Z,43.10
2023-05-17T06:11:17.273Z,43.20
2023-05-17T06:13:46.936Z,42.90
2023-05-17T06:16:15.848Z,43.10
2023-05-17T06:18:44.805Z,42.90
2023-05-17T06:21:16.351Z,42.90
2023-05-17T06:23:45.195Z,42.90
2023-05-17T06:26:15.781Z,43.00
2023-05-17T06:28:47.640Z,42.70
2023-05-17T06:31:19.758Z,42.40
2023-05-17T06:33:50.076Z,42.30
2023-05-17T06:36:18.170Z,42.20
2023-05-17T06:38:46.429Z,42.20
2023-05-17T06:41:15.405Z,42.10
2023-05-17T06:43:44.552Z,42.10
2023-05-17T06:46:12.798Z,41.90
2023-05-17T06:48:42.202Z,41.90
2023-05-17T06:51:11.210Z,41.70
2023-05-17T06:53:40.459Z,41.70
2023-05-17T06:56:09.869Z,41.70
2023-05-17T06:58:39.177Z,41.50
2023-05-17T07:01:08.012Z,41.50
2023-05-17T07:03:38.048Z,41.40
2023-05-17T07:06:07.468Z,41.30
2023-05-17T07:08:36.748Z,41.20
2023-05-17T07:11:06.339Z,41.10
2023-05-17T07:13:35.479Z,41.10
2023-05-17T07:16:03.861Z,41.00
2023-05-17T07:18:33.075Z,40.90
2023-05-17T07:21:02.020Z,40.90
2023-05-17T07:23:31.303Z,40.80
2023-05-17T07:26:00.686Z,40.30
2023-05-17T07:28:29.696Z,40.00
2023-05-17T07:30:58.579Z,39.50
2023-05-17T07:33:28.086Z,38.90
2023-05-17T07:35:57.565Z,38.70
2023-05-17T07:38:27.002Z,39.30
2023-05-17T07:40:56.314Z,39.40
2023-05-17T07:43:25.185Z,39.20
2023-05-17T07:45:54.648Z,38.90
2023-05-17T07:48:24.168Z,39.10
2023-05-17T07:50:53.745Z,39.30
2023-05-17T07:53:22.836Z,39.80
2023-05-17T07:55:51.345Z,39.50
2023-05-17T07:58:24.476Z,39.50
2023-05-17T08:00:59.771Z,39.20
2023-05-17T08:03:29.155Z,39.40
2023-05-17T08:05:58.511Z,39.30
2023-05-17T08:08:27.364Z,39.00
2023-05-17T08:10:56.798Z,38.60
2023-05-17T08:13:26.107Z,38.40
2023-05-17T08:16:01.651Z,38.10
2023-05-17T08:18:41.605Z,37.90
2023-05-17T08:21:10.445Z,37.60
2023-05-17T08:23:39.878Z,37.70
2023-05-17T08:26:09.236Z,37.60
2023-05-17T08:28:38.647Z,37.30
2023-05-17T08:31:07.932Z,37.00
2023-05-17T08:33:37.362Z,36.60
2023-05-17T08:36:06.837Z,36.10
2023-05-17T08:38:36.308Z,36.10
2023-05-17T08:41:05.786Z,36.10
2023-05-17T08:43:35.120Z,36.00
2023-05-17T08:46:04.580Z,35.80
2023-05-17T08:48:33.669Z,34.30
2023-05-17T08:51:02.573Z,32.90
2023-05-17T08:53:31.866Z,32.80
2023-05-17T08:56:01.271Z,33.10
2023-05-17T08:58:32.348Z,33.40
2023-05-17T09:01:02.132Z,33.10
2023-05-17T09:03:31.913Z,33.10
2023-05-17T09:06:04.468Z,33.60
2023-05-17T09:08:32.790Z,34.00
2023-05-17T09:11:02.142Z,34.50
2023-05-17T09:13:31.056Z,33.00
2023-05-17T09:16:00.408Z,30.00
2023-05-17T09:18:29.395Z,30.20
2023-05-17T09:20:58.810Z,30.40
2023-05-17T09:23:27.726Z,31.30
2023-05-17T09:25:57.138Z,30.60
2023-05-17T09:28:26.112Z,29.90
2023-05-17T09:30:55.609Z,28.70
2023-05-17T09:33:24.834Z,27.50
2023-05-17T09:35:53.597Z,28.20
2023-05-17T09:38:24.203Z,28.50
2023-05-17T09:40:54.794Z,28.80
2023-05-17T09:43:24.181Z,27.40
2023-05-17T09:45:53.557Z,27.00
2023-05-17T09:48:26.328Z,26.10
2023-05-17T09:50:54.726Z,25.30
2023-05-17T09:53:23.638Z,24.70
2023-05-17T09:55:53.131Z,24.20
2023-05-17T09:58:22.060Z,24.10
2023-05-17T10:00:51.444Z,24.90
2023-05-17T10:03:20.394Z,25.80
2023-05-17T10:05:49.760Z,26.60
2023-05-17T10:08:18.725Z,25.80
2023-05-17T10:10:47.520Z,24.70
2023-05-17T10:13:16.881Z,24.90
2023-05-17T10:15:45.854Z,25.20
2023-05-17T10:18:15.245Z,25.60
2023-05-17T10:20:44.164Z,24.70
2023-05-17T10:23:13.531Z,24.10
2023-05-17T10:25:42.724Z,23.60
2023-05-17T10:28:11.509Z,23.40
2023-05-17T10:30:40.817Z,23.30
2023-05-17T10:33:09.889Z,23.40
2023-05-17T10:35:42.437Z,23.10
2023-05-17T10:38:11.301Z,22.70
2023-05-17T10:40:40.242Z,22.80
2023-05-17T10:43:09.553Z,22.60
2023-05-17T10:45:39.017Z,22.50
2023-05-17T10:48:07.897Z,22.30
2023-05-17T10:50:37.658Z,22.60
2023-05-17T10:53:07.408Z,22.50
2023-05-17T10:55:36.983Z,22.30
2023-05-17T10:58:06.492Z,22.30
2023-05-17T11:00:35.127Z,22.10
2023-05-17T11:03:03.114Z,22.10
2023-05-17T11:05:33.296Z,22.10
2023-05-17T11:08:03.263Z,21.90
2023-05-17T11:10:31.526Z,22.30
2023-05-17T11:13:00.411Z,22.10
2023-05-17T11:15:29.558Z,22.20
2023-05-17T11:18:00.002Z,22.80
2023-05-17T11:20:28.953Z,22.50
2023-05-17T11:22:57.864Z,22.70
2023-05-17T11:25:27.207Z,22.60
2023-05-17T11:28:00.264Z,22.30
2023-05-17T11:30:29.298Z,22.20
2023-05-17T11:32:58.587Z,22.00
2023-05-17T11:35:28.074Z,22.00
2023-05-17T11:37:57.056Z,22.10
2023-05-17T11:40:25.933Z,22.30
2023-05-17T11:42:54.832Z,22.20
2023-05-17T11:45:24.888Z,21.90
2023-05-17T11:47:53.505Z,21.90
2023-05-17T11:50:22.740Z,21.80
2023-05-17T11:52:50.963Z,21.80
2023-05-17T11:55:20.306Z,21.80
2023-05-17T11:57:49.287Z,21.70
2023-05-17T12:00:18.302Z,21.50
2023-05-17T12:02:47.199Z,21.60
2023-05-17T12:05:16.085Z,21.60
2023-05-17T12:07:44.678Z,21.50
2023-05-17T12:10:13.021Z,21.50
2023-05-17T12:12:42.856Z,21.50
2023-05-17T12:15:12.751Z,21.50
2023-05-17T12:17:42.224Z,21.50
2023-05-17T12:20:11.153Z,21.40
2023-05-17T12:22:40.156Z,21.50
2023-05-17T12:25:09.537Z,21.40
2023-05-17T12:27:38.370Z,21.50
2023-05-17T12:30:07.324Z,21.60
2023-05-17T12:32:37.860Z,21.60
2023-05-17T12:35:09.251Z,21.70
2023-05-17T12:37:40.155Z,21.80
2023-05-17T12:40:09.659Z,22.10
2023-05-17T12:42:39.167Z,22.70
2023-05-17T12:45:08.757Z,23.20
2023-05-17T12:47:37.986Z,23.80
2023-05-17T12:50:06.837Z,24.40
2023-05-17T12:52:36.221Z,24.90
2023-05-17T12:55:05.197Z,25.30
2023-05-17T12:57:33.773Z,25.70
2023-05-17T13:00:02.491Z,26.00
2023-05-17T13:02:31.862Z,26.20
2023-05-17T13:05:00.897Z,26.70
2023-05-17T13:07:29.888Z,26.00
2023-05-17T13:09:59.395Z,25.60
2023-05-17T13:12:28.712Z,25.20
2023-05-17T13:14:57.605Z,24.70
2023-05-17T13:17:26.594Z,24.30
2023-05-17T13:19:55.552Z,23.90
2023-05-17T13:22:26.002Z,23.70
2023-05-17T13:24:55.753Z,23.50
2023-05-17T13:27:25.930Z,23.30
2023-05-17T13:29:55.431Z,23.20
2023-05-17T13:32:24.493Z,23.00
2023-05-17T13:34:53.493Z,22.90
2023-05-17T13:37:22.370Z,23.00
2023-05-17T13:39:51.333Z,22.90
2023-05-17T13:42:20.137Z,22.90
2023-05-17T13:44:49.472Z,23.00
2023-05-17T13:47:18.725Z,23.00
2023-05-17T13:49:48.077Z,23.00
2023-05-17T13:52:17.464Z,23.00
2023-05-17T13:54:46.909Z,23.20
2023-05-17T13:57:15.778Z,23.20
2023-05-17T13:59:45.787Z,23.20
2023-05-17T14:02:15.103Z,23.40
2023-05-17T14:04:43.267Z,23.50
2023-05-17T14:07:12.759Z,23.60
2023-05-17T14:09:41.741Z,24.10
2023-05-17T14:12:11.183Z,24.60
2023-05-17T14:14:40.042Z,25.20
2023-05-17T14:17:09.435Z,25.80
2023-05-17T14:19:38.313Z,26.30
2023-05-17T14:22:07.792Z,27.20
2023-05-17T14:24:37.266Z,27.10
2023-05-17T14:27:06.651Z,27.60
2023-05-17T14:29:35.499Z,27.90
2023-05-17T14:32:04.976Z,28.00
2023-05-17T14:34:33.970Z,28.40
2023-05-17T14:37:03.315Z,28.60
2023-05-17T14:39:32.134Z,28.80
2023-05-17T14:42:00.994Z,29.00
2023-05-17T14:44:30.250Z,29.20
2023-05-17T14:46:59.516Z,29.40
2023-05-17T14:49:28.393Z,29.50
2023-05-17T14:51:57.795Z,29.60
2023-05-17T14:54:27.264Z,29.80
2023-05-17T14:56:56.481Z,29.90
2023-05-17T14:59:25.731Z,30.00
2023-05-17T15:01:55.207Z,30.00
2023-05-17T15:04:24.701Z,30.10
2023-05-17T15:06:54.254Z,30.10
2023-05-17T15:09:23.721Z,30.20
2023-05-17T15:11:52.794Z,30.20
2023-05-17T15:14:21.062Z,30.20
2023-05-17T15:16:50.227Z,30.40
2023-05-17T15:19:18.861Z,30.60
2023-05-17T15:21:47.826Z,30.70
2023-05-17T15:24:17.872Z,30.70
2023-05-17T15:26:46.253Z,30.90
2023-05-17T15:29:15.180Z,31.10
2023-05-17T15:31:44.050Z,31.10
2023-05-17T15:34:13.548Z,31.90
2023-05-17T15:36:46.993Z,31.20
2023-05-17T15:39:16.401Z,31.40
2023-05-17T15:41:45.316Z,31.40
2023-05-17T15:44:14.777Z,31.50
2023-05-17T15:46:44.131Z,31.60
2023-05-17T15:49:13.479Z,31.70
2023-05-17T15:51:42.427Z,31.90
2023-05-17T15:54:11.966Z,32.00
2023-05-17T15:56:41.488Z,32.00
2023-05-17T15:59:10.828Z,32.10
2023-05-17T16:01:40.173Z,32.10
2023-05-17T16:04:09.678Z,32.20
2023-05-17T16:06:39.181Z,32.20
2023-05-17T16:09:08.581Z,32.40
2023-05-17T16:11:38.063Z,32.40
2023-05-17T16:14:07.309Z,32.50
2023-05-17T16:16:35.940Z,32.70
2023-05-17T16:19:05.198Z,32.70
2023-05-17T16:21:34.618Z,32.80
2023-05-17T16:24:03.563Z,32.80
2023-05-17T16:26:32.961Z,32.80
2023-05-17T16:29:02.129Z,32.90
2023-05-17T16:31:30.347Z,33.00
2023-05-17T16:33:59.752Z,33.00
2023-05-17T16:36:28.362Z,33.10
2023-05-17T16:38:57.065Z,33.20
2023-05-17T16:41:25.940Z,33.30
2023-05-17T16:43:54.874Z,33.40
2023-05-17T16:46:23.556Z,33.50
2023-05-17T16:48:52.344Z,33.40
2023-05-17T16:51:21.697Z,33.50
2023-05-17T16:53:51.012Z,33.50
2023-05-17T16:56:20.502Z,33.50
2023-05-17T16:58:49.653Z,33.60
2023-05-17T17:01:18.938Z,33.50
2023-05-17T17:03:48.343Z,33.60
2023-05-17T17:06:17.849Z,33.80
2023-05-17T17:08:46.740Z,33.80
2023-05-17T17:11:16.117Z,33.80
2023-05-17T17:13:44.889Z,33.80
2023-05-17T17:16:14.295Z,33.90
2023-05-17T17:18:43.793Z,33.80
2023-05-17T17:21:13.157Z,33.70
2023-05-17T17:23:42.491Z,33.70
2023-05-17T17:26:11.583Z,33.70
2023-05-17T17:28:39.952Z,33.80
2023-05-17T17:31:08.797Z,33.80
2023-05-17T17:33:37.781Z,33.80
2023-05-17T17:36:06.721Z,33.80
2023-05-17T17:38:36.179Z,34.00
2023-05-17T17:41:05.057Z,34.10
2023-05-17T17:43:33.946Z,34.10
2023-05-17T17:46:02.908Z,34.10
2023-05-17T17:48:32.398Z,34.10
2023-05-17T17:51:01.353Z,34.10
2023-05-17T17:53:30.733Z,34.20
2023-05-17T17:55:59.518Z,34.20
2023-05-17T17:58:28.829Z,34.20
2023-05-17T18:00:58.199Z,34.30
2023-05-17T18:03:28.689Z,34.40
2023-05-17T18:05:57.595Z,34.40
2023-05-17T18:08:26.970Z,34.50
2023-05-17T18:10:56.548Z,34.50
2023-05-17T18:13:26.133Z,34.50
2023-05-17T18:15:55.000Z,34.60
2023-05-17T18:18:23.891Z,34.60
2023-05-17T18:20:52.962Z,34.60
2023-05-17T18:23:21.161Z,34.80
2023-05-17T18:25:50.682Z,35.00
2023-05-17T18:28:26.896Z,34.90
2023-05-17T18:31:06.650Z,35.60
2023-05-17T18:33:35.656Z,35.10
2023-05-17T18:36:03.921Z,35.20
2023-05-17T18:38:32.578Z,35.30
2023-05-17T18:41:01.335Z,35.50
2023-05-17T18:43:30.626Z,35.50
2023-05-17T18:45:59.683Z,35.60
2023-05-17T18:48:28.050Z,35.70
2023-05-17T18:50:57.700Z,35.80
2023-05-17T18:53:27.139Z,35.80
2023-05-17T18:55:56.539Z,36.00
2023-05-17T18:58:25.500Z,35.90
2023-05-17T19:00:54.951Z,36.10
2023-05-17T19:03:24.270Z,36.10
2023-05-17T19:05:53.537Z,36.10
2023-05-17T19:08:22.720Z,36.10
2023-05-17T19:10:51.174Z,36.30
2023-05-17T19:13:19.619Z,36.30
2023-05-17T19:15:48.255Z,36.40
2023-05-17T19:18:17.257Z,36.40
2023-05-17T19:20:46.203Z,36.50
2023-05-17T19:23:15.513Z,36.50
2023-05-17T19:25:44.322Z,36.60
2023-05-17T19:28:13.542Z,36.70
2023-05-17T19:30:42.939Z,36.90
2023-05-17T19:33:11.952Z,36.80
2023-05-17T19:35:41.497Z,36.90
2023-05-17T19:38:10.298Z,37.00
2023-05-17T19:40:39.584Z,37.00
2023-05-17T19:43:08.456Z,37.10
2023-05-17T19:45:37.699Z,37.10
2023-05-17T19:48:06.598Z,37.10
2023-05-17T19:50:36.902Z,37.10
2023-05-17T19:53:08.257Z,37.10
2023-05-17T19:55:39.016Z,37.20
2023-05-17T19:58:08.351Z,37.20
2023-05-17T20:00:37.753Z,37.20
2023-05-17T20:03:07.784Z,37.10
2023-05-17T20:05:37.238Z,37.30
2023-05-17T20:08:06.575Z,37.20
2023-05-17T20:10:35.889Z,37.10
2023-05-17T20:13:04.727Z,37.20
2023-05-17T20:15:34.119Z,37.20
2023-05-17T20:18:03.300Z,37.20
2023-05-17T20:20:32.300Z,37.20
2023-05-17T20:23:01.806Z,37.20
2023-05-17T20:25:30.848Z,37.30
2023-05-17T20:27:59.888Z,37.20
2023-05-17T20:30:29.564Z,37.20
2023-05-17T20:32:58.646Z,37.20
2023-05-17T20:35:28.086Z,37.90
2023-05-17T20:37:57.069Z,37.20
2023-05-17T20:40:26.030Z,37.20
2023-05-17T20:42:55.405Z,37.10
2023-05-17T20:45:24.357Z,37.10
2023-05-17T20:47:53.768Z,37.20
2023-05-17T20:50:23.318Z,37.20
2023-05-17T20:52:52.259Z,37.20
2023-05-17T20:55:21.158Z,37.10
2023-05-17T20:57:49.971Z,37.20
2023-05-17T21:00:19.086Z,37.20
2023-05-17T21:02:48.274Z,37.10
2023-05-17T21:05:17.159Z,37.10
2023-05-17T21:07:46.698Z,37.20
2023-05-17T21:10:16.168Z,37.10
2023-05-17T21:12:45.024Z,37.10
2023-05-17T21:15:17.304Z,37.20
2023-05-17T21:17:47.026Z,37.20
2023-05-17T21:20:15.943Z,37.10
2023-05-17T21:22:45.374Z,37.20
2023-05-17T21:25:14.007Z,37.10
2023-05-17T21:27:42.472Z,37.20
2023-05-17T21:30:11.146Z,37.20
2023-05-17T21:32:40.517Z,37.20
2023-05-17T21:35:09.935Z,37.20
2023-05-17T21:37:39.384Z,37.20
2023-05-17T21:40:08.855Z,37.20
2023-05-17T21:42:37.789Z,37.20
2023-05-17T21:45:06.861Z,37.30
2023-05-17T21:47:36.556Z,37.30
2023-05-17T21:50:05.443Z,37.30
2023-05-17T21:52:34.548Z,37.30
2023-05-17T21:55:03.254Z,37.30
2023-05-17T21:57:32.625Z,37.40
2023-05-17T22:00:01.921Z,37.50
2023-05-17T22:02:34.767Z,37.50
2023-05-17T22:05:03.712Z,37.50
2023-05-17T22:07:33.169Z,37.50
2023-05-17T22:10:02.133Z,37.50
2023-05-17T22:12:31.057Z,37.60
2023-05-17T22:15:00.000Z,37.70
2023-05-17T22:17:35.131Z,37.70
2023-05-17T22:20:12.161Z,37.70
2023-05-17T22:22:41.657Z,37.70
2023-05-17T22:25:11.155Z,38.40
2023-05-17T22:27:40.578Z,37.80
2023-05-17T22:30:09.930Z,37.80
2023-05-17T22:32:38.925Z,37.80
2023-05-17T22:35:07.557Z,37.80
2023-05-17T22:37:36.909Z,37.80
2023-05-17T22:40:06.383Z,37.80
2023-05-17T22:42:35.642Z,37.80
2023-05-17T22:45:04.758Z,37.90
2023-05-17T22:47:33.508Z,37.90
2023-05-17T22:50:02.517Z,37.90
2023-05-17T22:52:31.144Z,37.90
2023-05-17T22:55:00.140Z,37.90
2023-05-17T22:57:29.550Z,37.90
2023-05-17T22:59:58.947Z,37.90
2023-05-17T23:02:28.336Z,37.90
2023-05-17T23:04:57.211Z,37.90
2023-05-17T23:07:26.537Z,37.90
2023-05-17T23:09:55.376Z,37.90
2023-05-17T23:12:24.134Z,38.00
2023-05-17T23:14:53.423Z,38.00
2023-05-17T23:17:22.795Z,38.00
2023-05-17T23:19:52.028Z,38.00
2023-05-17T23:22:20.949Z,38.00
2023-05-17T23:24:49.763Z,38.00
2023-05-17T23:27:19.126Z,38.20
2023-05-17T23:29:48.092Z,38.10
2023-05-17T23:32:17.406Z,38.10
2023-05-17T23:34:46.801Z,38.20
2023-05-17T23:37:16.348Z,38.10
2023-05-17T23:39:45.290Z,38.10
2023-05-17T23:42:14.381Z,38.10
2023-05-17T23:44:43.183Z,38.20
2023-05-17T23:47:11.835Z,38.20
2023-05-17T23:49:40.484Z,38.30
2023-05-17T23:52:09.938Z,38.20
2023-05-17T23:54:39.506Z,38.20
2023-05-17T23:57:08.457Z,38.20
2023-05-17T23:59:37.769Z,38.20
